createdAt,value
2022-10-17T00:00:59.874Z,27.4
2022-10-17T00:02:02.346Z,27.4
2022-10-17T00:03:04.841Z,27.3
2022-10-17T00:04:07.029Z,27.4
2022-10-17T00:05:09.230Z,27.3
2022-10-17T00:06:11.701Z,27.4
2022-10-17T00:07:14.175Z,27.4
2022-10-17T00:08:16.374Z,27.6
2022-10-17T00:09:18.839Z,27.4
2022-10-17T00:10:20.757Z,27.5
2022-10-17T00:11:23.228Z,27.5
2022-10-17T00:12:25.141Z,27.3
2022-10-17T00:13:27.689Z,27.4
2022-10-17T00:14:30.645Z,27.5
2022-10-17T00:15:32.922Z,27.4
2022-10-17T00:16:35.385Z,27.4
2022-10-17T00:17:37.858Z,27.4
2022-10-17T00:18:40.370Z,27.6
2022-10-17T00:19:42.268Z,27.4
2022-10-17T00:20:44.741Z,27.4
2022-10-17T00:21:46.946Z,27.4
2022-10-17T00:22:49.417Z,27.5
2022-10-17T00:23:51.884Z,27.1
2022-10-17T00:24:54.373Z,27.3
2022-10-17T00:25:56.569Z,27.3
2022-10-17T00:26:59.042Z,27.2
2022-10-17T00:28:01.513Z,27.2
2022-10-17T00:29:03.515Z,27.2
2022-10-17T00:30:06.505Z,27.4
2022-10-17T00:31:09.051Z,27.3
2022-10-17T00:32:11.519Z,27.1
2022-10-17T00:33:13.713Z,27.2
2022-10-17T00:34:16.208Z,27.2
2022-10-17T00:35:18.675Z,27.1
2022-10-17T00:36:21.154Z,27.1
2022-10-17T00:37:23.628Z,27.3
2022-10-17T00:38:25.818Z,27.2
2022-10-17T00:39:28.302Z,27
2022-10-17T00:40:30.768Z,27.2
2022-10-17T00:41:33.245Z,27
2022-10-17T00:42:35.706Z,27.2
2022-10-17T00:43:37.900Z,26.9
2022-10-17T00:44:39.820Z,27
2022-10-17T00:45:42.404Z,27
2022-10-17T00:46:44.687Z,27.1
2022-10-17T00:47:46.859Z,27.1
2022-10-17T00:48:48.825Z,27.1
2022-10-17T00:49:51.098Z,27.1
2022-10-17T00:50:53.581Z,26.9
2022-10-17T00:51:55.785Z,26.9
2022-10-17T00:52:58.257Z,27.1
2022-10-17T00:54:00.757Z,26.9
2022-10-17T00:55:03.273Z,27
2022-10-17T00:56:04.905Z,27
2022-10-17T00:57:07.372Z,26.9
2022-10-17T00:58:09.846Z,26.8
2022-10-17T00:59:12.018Z,27.1
2022-10-17T01:00:13.946Z,27
2022-10-17T01:01:16.138Z,26.8
2022-10-17T01:02:18.977Z,27
2022-10-17T01:03:21.452Z,27
2022-10-17T01:04:23.930Z,27
2022-10-17T01:05:26.136Z,26.9
2022-10-17T01:06:28.600Z,27
2022-10-17T01:07:32.021Z,27.1
2022-10-17T01:08:35.507Z,27.1
2022-10-17T01:09:37.975Z,27
2022-10-17T01:10:40.444Z,26.8
2022-10-17T01:11:42.913Z,26.9
2022-10-17T01:12:45.115Z,27
2022-10-17T01:13:47.285Z,26.8
2022-10-17T01:14:49.754Z,26.9
2022-10-17T01:15:52.228Z,26.9
2022-10-17T01:16:54.156Z,27
2022-10-17T01:17:56.731Z,27
2022-10-17T01:18:58.927Z,26.9
2022-10-17T01:20:01.395Z,27
2022-10-17T01:21:03.335Z,27
2022-10-17T01:22:05.520Z,26.9
2022-10-17T01:23:07.720Z,27
2022-10-17T01:24:10.195Z,27
2022-10-17T01:25:11.845Z,26.9
2022-10-17T01:26:14.042Z,26.9
2022-10-17T01:27:16.243Z,27.1
2022-10-17T01:28:18.433Z,27
2022-10-17T01:29:20.949Z,26.8
2022-10-17T01:30:23.137Z,26.9
2022-10-17T01:31:25.722Z,26.9
2022-10-17T01:32:28.419Z,26.8
2022-10-17T01:33:32.587Z,26.8
2022-10-17T01:34:35.161Z,26.7
2022-10-17T01:35:37.048Z,27
2022-10-17T01:36:39.265Z,26.9
2022-10-17T01:37:41.523Z,26.9
2022-10-17T01:38:43.452Z,26.9
2022-10-17T01:39:47.714Z,27
2022-10-17T01:40:50.047Z,26.8
2022-10-17T01:41:52.520Z,26.9
2022-10-17T01:42:54.722Z,27
2022-10-17T01:43:57.197Z,26.9
2022-10-17T01:44:59.669Z,26.9
2022-10-17T01:46:02.146Z,27
2022-10-17T01:47:04.629Z,26.9
2022-10-17T01:48:06.262Z,26.9
2022-10-17T01:49:08.808Z,27
2022-10-17T01:50:11.023Z,27
2022-10-17T01:51:13.528Z,27
2022-10-17T01:52:16.040Z,26.9
2022-10-17T01:53:18.238Z,27
2022-10-17T01:54:20.718Z,27
2022-10-17T01:55:22.633Z,26.9
2022-10-17T01:56:25.111Z,26.9
2022-10-17T01:57:27.458Z,26.9
2022-10-17T01:58:31.243Z,26.9
2022-10-17T01:59:33.134Z,27
2022-10-17T02:00:35.424Z,27.1
2022-10-17T02:01:37.685Z,26.8
2022-10-17T02:02:40.416Z,26.9
2022-10-17T02:03:42.687Z,27
2022-10-17T02:04:45.221Z,26.9
2022-10-17T02:05:47.406Z,27
2022-10-17T02:06:49.596Z,27
2022-10-17T02:07:52.091Z,27
2022-10-17T02:08:54.548Z,27
2022-10-17T02:09:56.469Z,26.8
2022-10-17T02:10:58.675Z,27
2022-10-17T02:12:01.146Z,27
2022-10-17T02:13:03.321Z,26.9
2022-10-17T02:14:05.554Z,26.9
2022-10-17T02:15:08.056Z,26.9
2022-10-17T02:16:10.255Z,26.9
2022-10-17T02:17:12.442Z,27
2022-10-17T02:18:14.918Z,26.9
2022-10-17T02:19:17.118Z,26.9
2022-10-17T02:20:19.666Z,26.9
2022-10-17T02:21:22.129Z,26.9
2022-10-17T02:22:24.311Z,27
2022-10-17T02:23:26.813Z,27.1
2022-10-17T02:24:29.293Z,26.9
2022-10-17T02:25:31.764Z,26.9
2022-10-17T02:26:33.692Z,26.9
2022-10-17T02:27:35.872Z,26.9
2022-10-17T02:28:38.096Z,27
2022-10-17T02:29:40.557Z,27
2022-10-17T02:30:42.740Z,27.1
2022-10-17T02:31:45.220Z,26.9
2022-10-17T02:32:49.370Z,26.8
2022-10-17T02:33:52.726Z,27
2022-10-17T02:34:55.190Z,27
2022-10-17T02:35:57.467Z,26.9
2022-10-17T02:36:59.381Z,26.8
2022-10-17T02:38:01.303Z,26.7
2022-10-17T02:39:03.794Z,27
2022-10-17T02:40:05.702Z,26.8
2022-10-17T02:41:07.899Z,26.9
2022-10-17T02:42:10.099Z,26.8
2022-10-17T02:43:12.329Z,27.1
2022-10-17T02:44:14.536Z,27
2022-10-17T02:45:17.018Z,26.8
2022-10-17T02:46:18.667Z,26.9
2022-10-17T02:47:21.136Z,26.8
2022-10-17T02:48:23.340Z,27
2022-10-17T02:49:25.805Z,26.9
2022-10-17T02:51:31.306Z,26.9
2022-10-17T02:52:33.538Z,27
2022-10-17T02:53:36.033Z,26.9
2022-10-17T02:54:38.529Z,26.8
2022-10-17T02:55:40.719Z,26.9
2022-10-17T02:56:43.189Z,26.9
2022-10-17T02:57:45.656Z,26.8
2022-10-17T02:58:47.856Z,27
2022-10-17T02:59:50.363Z,26.9
2022-10-17T03:00:52.889Z,26.9
2022-10-17T03:01:55.591Z,26.7
2022-10-17T03:02:58.059Z,26.7
2022-10-17T03:04:00.529Z,26.9
2022-10-17T03:05:02.731Z,27
2022-10-17T03:06:04.919Z,27
2022-10-17T03:07:07.467Z,26.8
2022-10-17T03:08:09.666Z,26.9
2022-10-17T03:09:12.137Z,26.8
2022-10-17T03:10:14.634Z,26.8
2022-10-17T03:11:17.100Z,27
2022-10-17T03:12:19.297Z,27
2022-10-17T03:13:21.500Z,27
2022-10-17T03:14:23.123Z,26.9
2022-10-17T03:15:25.623Z,26.7
2022-10-17T03:16:28.087Z,26.9
2022-10-17T03:17:30.292Z,26.8
2022-10-17T03:18:32.778Z,26.8
2022-10-17T03:19:34.686Z,26.9
2022-10-17T03:20:37.150Z,26.9
2022-10-17T03:21:39.353Z,26.9
2022-10-17T03:22:41.897Z,26.9
2022-10-17T03:23:44.367Z,26.8
2022-10-17T03:24:46.843Z,26.8
2022-10-17T03:25:49.333Z,26.8
2022-10-17T03:26:51.531Z,26.8
2022-10-17T03:27:54.026Z,26.7
2022-10-17T03:28:56.260Z,26.8
2022-10-17T03:29:58.515Z,26.8
2022-10-17T03:31:00.720Z,27
2022-10-17T03:32:03.184Z,26.8
2022-10-17T03:33:05.662Z,26.9
2022-10-17T03:34:07.576Z,27
2022-10-17T03:35:12.611Z,26.9
2022-10-17T03:36:15.052Z,27.1
2022-10-17T03:37:17.513Z,26.8
2022-10-17T03:38:19.793Z,26.8
2022-10-17T03:39:21.709Z,26.8
2022-10-17T03:40:24.185Z,26.9
2022-10-17T03:41:26.406Z,26.7
2022-10-17T03:42:28.868Z,26.8
2022-10-17T03:43:31.297Z,26.8
2022-10-17T03:44:33.491Z,26.6
2022-10-17T03:45:35.959Z,27
2022-10-17T03:46:38.427Z,26.8
2022-10-17T03:47:40.624Z,26.9
2022-10-17T03:48:43.092Z,26.9
2022-10-17T03:49:45.287Z,26.8
2022-10-17T03:50:47.214Z,26.9
2022-10-17T03:51:49.470Z,26.9
2022-10-17T03:52:51.936Z,26.9
2022-10-17T03:53:54.484Z,26.9
2022-10-17T03:54:56.960Z,26.8
2022-10-17T03:55:59.148Z,26.8
2022-10-17T03:57:01.652Z,26.9
2022-10-17T03:58:03.884Z,26.8
2022-10-17T03:59:05.805Z,26.8
2022-10-17T04:00:07.999Z,26.8
2022-10-17T04:01:10.266Z,26.8
2022-10-17T04:02:12.605Z,26.7
2022-10-17T04:03:17.108Z,26.9
2022-10-17T04:04:20.070Z,26.8
2022-10-17T04:05:22.249Z,26.8
2022-10-17T04:06:24.716Z,26.8
2022-10-17T04:08:29.788Z,26.7
2022-10-17T04:09:32.359Z,26.9
2022-10-17T04:10:34.832Z,26.7
2022-10-17T04:11:36.736Z,26.8
2022-10-17T04:12:39.230Z,26.8
2022-10-17T04:13:41.693Z,26.6
2022-10-17T04:14:44.166Z,26.7
2022-10-17T04:15:46.636Z,26.9
2022-10-17T04:16:48.264Z,26.8
2022-10-17T04:17:50.755Z,26.7
2022-10-17T04:18:53.231Z,26.8
2022-10-17T04:19:55.433Z,26.7
2022-10-17T04:20:57.913Z,26.9
2022-10-17T04:21:59.806Z,26.8
2022-10-17T04:23:02.528Z,26.7
2022-10-17T04:24:04.732Z,27
2022-10-17T04:25:07.305Z,26.8
2022-10-17T04:26:09.494Z,26.7
2022-10-17T04:27:11.697Z,26.7
2022-10-17T04:28:13.884Z,26.8
2022-10-17T04:29:16.074Z,26.9
2022-10-17T04:30:18.540Z,26.7
2022-10-17T04:31:21.012Z,27
2022-10-17T04:32:23.205Z,26.8
2022-10-17T04:33:25.672Z,26.8
2022-10-17T04:34:28.154Z,26.9
2022-10-17T04:35:30.349Z,26.8
2022-10-17T04:36:32.819Z,26.9
2022-10-17T04:37:35.288Z,26.8
2022-10-17T04:38:37.755Z,26.8
2022-10-17T04:39:39.955Z,26.9
2022-10-17T04:40:42.498Z,26.8
2022-10-17T04:41:44.701Z,26.8
2022-10-17T04:42:47.194Z,26.8
2022-10-17T04:43:50.944Z,26.7
2022-10-17T04:44:53.410Z,26.8
2022-10-17T04:45:55.921Z,26.9
2022-10-17T04:46:58.383Z,26.6
2022-10-17T04:48:00.582Z,26.9
2022-10-17T04:49:02.761Z,26.7
2022-10-17T04:50:05.231Z,26.8
2022-10-17T04:51:07.699Z,26.7
2022-10-17T04:52:09.895Z,26.7
2022-10-17T04:53:12.098Z,26.7
2022-10-17T04:54:14.630Z,26.6
2022-10-17T04:55:16.834Z,26.7
2022-10-17T04:56:19.407Z,26.9
2022-10-17T04:57:21.342Z,26.7
2022-10-17T04:58:23.260Z,26.8
2022-10-17T04:59:25.214Z,26.7
2022-10-17T05:00:27.435Z,26.7
2022-10-17T05:01:29.659Z,26.8
2022-10-17T05:02:32.302Z,26.8
2022-10-17T05:03:34.374Z,26.7
2022-10-17T05:04:36.843Z,26.6
2022-10-17T05:05:39.320Z,26.8
2022-10-17T05:06:41.512Z,26.8
2022-10-17T05:07:43.993Z,26.9
2022-10-17T05:08:46.471Z,26.9
2022-10-17T05:09:48.940Z,26.8
2022-10-17T05:10:51.426Z,26.8
2022-10-17T05:11:54.292Z,26.7
2022-10-17T05:12:56.202Z,26.9
2022-10-17T05:13:58.127Z,26.8
2022-10-17T05:14:59.863Z,26.7
2022-10-17T05:16:02.072Z,26.9
2022-10-17T05:17:04.546Z,26.8
2022-10-17T05:18:07.040Z,26.9
2022-10-17T05:19:09.040Z,26.8
2022-10-17T05:20:10.958Z,26.9
2022-10-17T05:21:12.861Z,26.8
2022-10-17T05:22:15.334Z,26.7
2022-10-17T05:23:17.575Z,27
2022-10-17T05:24:19.783Z,26.8
2022-10-17T05:25:21.703Z,26.8
2022-10-17T05:26:24.185Z,26.9
2022-10-17T05:27:26.728Z,26.8
2022-10-17T05:28:29.266Z,26.9
2022-10-17T05:29:31.745Z,26.9
2022-10-17T05:30:36.676Z,26.8
2022-10-17T05:31:39.215Z,26.8
2022-10-17T05:32:41.408Z,26.9
2022-10-17T05:33:43.903Z,26.7
2022-10-17T05:34:46.087Z,26.9
2022-10-17T05:35:48.260Z,27
2022-10-17T05:36:50.744Z,26.9
2022-10-17T05:37:53.220Z,26.7
2022-10-17T05:38:55.694Z,27
2022-10-17T05:39:57.894Z,26.8
2022-10-17T05:41:00.375Z,26.9
2022-10-17T05:42:02.882Z,26.8
2022-10-17T05:43:05.443Z,26.8
2022-10-17T05:44:07.930Z,26.9
2022-10-17T05:45:10.406Z,26.9
2022-10-17T05:46:12.354Z,26.7
2022-10-17T05:47:14.826Z,26.8
2022-10-17T05:48:16.482Z,26.7
2022-10-17T05:49:31.823Z,26.8
2022-10-17T05:50:23.948Z,26.9
2022-10-17T05:51:26.189Z,26.9
2022-10-17T05:52:28.959Z,26.7
2022-10-17T05:53:33.078Z,26.9
2022-10-17T05:54:35.698Z,26.9
2022-10-17T05:55:37.918Z,26.7
2022-10-17T05:56:40.130Z,26.8
2022-10-17T05:57:42.049Z,27
2022-10-17T05:58:50.124Z,26.7
2022-10-17T05:59:49.602Z,27
2022-10-17T06:00:51.795Z,26.9
2022-10-17T06:01:54.055Z,26.9
2022-10-17T06:02:56.714Z,26.9
2022-10-17T06:03:59.051Z,26.9
2022-10-17T06:05:00.988Z,26.9
2022-10-17T06:06:03.214Z,27
2022-10-17T06:07:05.139Z,26.9
2022-10-17T06:08:07.615Z,26.9
2022-10-17T06:09:10.098Z,26.9
2022-10-17T06:10:12.284Z,26.8
2022-10-17T06:11:14.491Z,26.8
2022-10-17T06:12:16.701Z,26.9
2022-10-17T06:13:19.181Z,26.8
2022-10-17T06:14:21.763Z,26.7
2022-10-17T06:15:23.957Z,27
2022-10-17T06:16:25.884Z,26.9
2022-10-17T06:17:27.829Z,26.8
2022-10-17T06:18:30.073Z,26.8
2022-10-17T06:19:32.010Z,26.9
2022-10-17T06:20:33.913Z,26.9
2022-10-17T06:21:35.809Z,26.7
2022-10-17T06:22:38.030Z,26.8
2022-10-17T06:23:39.938Z,26.8
2022-10-17T06:24:42.425Z,26.8
2022-10-17T06:25:44.900Z,26.9
2022-10-17T06:26:46.812Z,26.8
2022-10-17T06:27:49.061Z,27
2022-10-17T06:28:51.541Z,26.8
2022-10-17T06:29:54.198Z,27
2022-10-17T06:30:56.099Z,26.7
2022-10-17T06:31:58.290Z,26.8
2022-10-17T06:33:00.802Z,26.8
2022-10-17T06:34:02.993Z,27
2022-10-17T06:35:05.471Z,26.7
2022-10-17T06:36:07.667Z,26.9
2022-10-17T06:37:09.874Z,26.7
2022-10-17T06:38:12.076Z,27
2022-10-17T06:39:14.550Z,26.9
2022-10-17T06:40:17.025Z,26.8
2022-10-17T06:41:19.525Z,26.7
2022-10-17T06:42:21.742Z,26.9
2022-10-17T06:43:27.031Z,26.8
2022-10-17T06:44:29.238Z,27
2022-10-17T06:45:31.796Z,26.7
2022-10-17T06:46:33.996Z,26.8
2022-10-17T06:47:36.199Z,26.9
2022-10-17T06:48:38.701Z,27.1
2022-10-17T06:49:41.188Z,27
2022-10-17T06:50:43.664Z,26.9
2022-10-17T06:51:45.590Z,26.8
2022-10-17T06:52:48.064Z,26.8
2022-10-17T06:53:50.532Z,26.8
2022-10-17T06:54:52.513Z,26.9
2022-10-17T06:55:55.245Z,27
2022-10-17T06:56:57.723Z,26.9
2022-10-17T06:57:59.917Z,26.7
2022-10-17T06:59:02.419Z,26.8
2022-10-17T07:00:04.641Z,27
2022-10-17T07:02:10.946Z,26.8
2022-10-17T07:03:13.419Z,26.9
2022-10-17T07:04:15.651Z,26.9
2022-10-17T07:05:18.127Z,26.8
2022-10-17T07:06:20.329Z,26.8
2022-10-17T07:07:22.560Z,26.8
2022-10-17T07:08:25.046Z,26.8
2022-10-17T07:09:27.524Z,26.9
2022-10-17T07:10:29.695Z,26.8
2022-10-17T07:11:32.170Z,26.8
2022-10-17T07:12:34.081Z,26.8
2022-10-17T07:13:39.054Z,26.8
2022-10-17T07:14:41.260Z,26.7
2022-10-17T07:15:43.191Z,26.9
2022-10-17T07:16:45.891Z,26.8
2022-10-17T07:17:48.357Z,26.7
2022-10-17T07:18:50.569Z,26.7
2022-10-17T07:19:52.801Z,26.7
2022-10-17T07:20:54.780Z,26.7
2022-10-17T07:21:57.255Z,26.8
2022-10-17T07:22:59.737Z,26.7
2022-10-17T07:24:01.646Z,26.7
2022-10-17T07:25:03.865Z,26.9
2022-10-17T07:26:06.078Z,26.8
2022-10-17T07:27:08.575Z,26.9
2022-10-17T07:28:10.503Z,26.9
2022-10-17T07:29:12.712Z,26.8
2022-10-17T07:30:15.197Z,26.7
2022-10-17T07:31:17.149Z,26.8
2022-10-17T07:32:19.840Z,26.7
2022-10-17T07:33:22.328Z,26.8
2022-10-17T07:34:24.551Z,26.7
2022-10-17T07:35:26.787Z,26.9
2022-10-17T07:36:28.969Z,26.7
2022-10-17T07:37:31.518Z,26.7
2022-10-17T07:38:35.203Z,26.6
2022-10-17T07:39:37.417Z,26.9
2022-10-17T07:40:39.887Z,26.7
2022-10-17T07:41:42.072Z,26.8
2022-10-17T07:42:43.727Z,26.7
2022-10-17T07:43:46.221Z,26.7
2022-10-17T07:44:48.697Z,26.8
2022-10-17T07:45:50.934Z,26.8
2022-10-17T07:46:53.145Z,26.7
2022-10-17T07:47:55.718Z,26.6
2022-10-17T07:48:58.182Z,26.7
2022-10-17T07:50:00.105Z,26.8
2022-10-17T07:51:02.628Z,26.7
2022-10-17T07:52:05.106Z,26.8
2022-10-17T07:53:07.587Z,26.7
2022-10-17T07:54:10.063Z,26.8
2022-10-17T07:55:12.532Z,26.8
2022-10-17T07:56:15.012Z,26.8
2022-10-17T07:57:17.480Z,26.7
2022-10-17T07:58:19.951Z,26.8
2022-10-17T07:59:22.417Z,26.7
2022-10-17T08:00:24.631Z,26.8
2022-10-17T08:01:27.161Z,26.6
2022-10-17T08:02:29.570Z,26.8
2022-10-17T08:03:34.057Z,26.8
2022-10-17T08:04:35.987Z,26.8
2022-10-17T08:05:38.231Z,26.7
2022-10-17T08:06:40.440Z,26.8
2022-10-17T08:07:42.915Z,26.8
2022-10-17T08:08:45.113Z,26.8
2022-10-17T08:09:47.328Z,26.9
2022-10-17T08:10:49.800Z,26.8
2022-10-17T08:11:51.994Z,26.7
2022-10-17T08:12:54.197Z,26.9
2022-10-17T08:13:56.673Z,26.6
2022-10-17T08:14:58.871Z,26.8
2022-10-17T08:16:01.340Z,26.8
2022-10-17T08:17:03.528Z,26.8
2022-10-17T08:18:05.737Z,26.8
2022-10-17T08:20:11.832Z,26.8
2022-10-17T08:21:13.208Z,26.8
2022-10-17T08:22:15.730Z,26.6
2022-10-17T08:23:18.199Z,26.8
2022-10-17T08:24:20.671Z,26.6
2022-10-17T08:25:23.174Z,26.8
2022-10-17T08:26:25.374Z,26.8
2022-10-17T08:27:27.890Z,26.8
2022-10-17T08:28:30.405Z,26.8
2022-10-17T08:29:32.941Z,26.9
2022-10-17T08:30:34.582Z,26.8
2022-10-17T08:31:37.063Z,26.8
2022-10-17T08:32:39.009Z,26.8
2022-10-17T08:33:41.473Z,26.7
2022-10-17T08:34:44.041Z,26.7
2022-10-17T08:35:46.243Z,26.7
2022-10-17T08:36:47.606Z,26.9
2022-10-17T08:37:49.828Z,26.7
2022-10-17T08:38:53.078Z,27
2022-10-17T08:39:55.745Z,26.8
2022-10-17T08:40:57.942Z,26.8
2022-10-17T08:42:00.410Z,26.8
2022-10-17T08:43:02.886Z,26.8
2022-10-17T08:44:05.080Z,26.8
2022-10-17T08:45:07.563Z,26.8
2022-10-17T08:46:09.522Z,26.8
2022-10-17T08:47:12.010Z,26.7
2022-10-17T08:48:13.926Z,26.7
2022-10-17T08:49:16.412Z,27
2022-10-17T08:50:18.934Z,26.8
2022-10-17T08:51:21.406Z,26.8
2022-10-17T08:52:23.887Z,26.8
2022-10-17T08:53:26.130Z,26.8
2022-10-17T08:54:28.601Z,26.9
2022-10-17T08:55:31.087Z,27
2022-10-17T08:56:47.802Z,26.9
2022-10-17T08:57:38.587Z,27
2022-10-17T08:58:40.924Z,26.9
2022-10-17T08:59:43.400Z,26.7
2022-10-17T09:00:45.594Z,26.8
2022-10-17T09:01:47.783Z,26.9
2022-10-17T09:02:50.315Z,26.8
2022-10-17T09:03:52.959Z,26.7
2022-10-17T09:04:54.884Z,26.8
2022-10-17T09:05:57.455Z,26.8
2022-10-17T09:06:59.651Z,27.1
2022-10-17T09:08:01.828Z,26.9
2022-10-17T09:09:03.789Z,26.9
2022-10-17T09:10:05.708Z,26.9
2022-10-17T09:11:07.917Z,26.8
2022-10-17T09:12:10.386Z,26.7
2022-10-17T09:13:12.871Z,26.9
2022-10-17T09:14:15.073Z,26.9
2022-10-17T09:15:17.544Z,27
2022-10-17T09:16:20.046Z,26.8
2022-10-17T09:17:22.518Z,26.8
2022-10-17T09:18:24.760Z,26.9
2022-10-17T09:19:27.349Z,26.7
2022-10-17T09:20:29.595Z,26.8
2022-10-17T09:21:32.166Z,26.7
2022-10-17T09:22:34.650Z,26.9
2022-10-17T09:23:37.979Z,26.9
2022-10-17T09:24:41.857Z,26.7
2022-10-17T09:25:44.086Z,26.9
2022-10-17T09:26:46.559Z,26.8
2022-10-17T09:27:49.031Z,26.7
2022-10-17T09:28:51.559Z,26.8
2022-10-17T09:29:53.959Z,26.8
2022-10-17T09:30:56.436Z,27
2022-10-17T09:31:58.650Z,26.9
2022-10-17T09:33:00.931Z,26.9
2022-10-17T09:34:03.117Z,26.9
2022-10-17T09:35:05.324Z,26.8
2022-10-17T09:36:07.798Z,26.9
2022-10-17T09:37:10.347Z,26.9
2022-10-17T09:38:12.553Z,26.6
2022-10-17T09:39:14.773Z,26.8
2022-10-17T09:40:16.989Z,26.9
2022-10-17T09:41:43.429Z,26.9
2022-10-17T09:42:24.484Z,26.9
2022-10-17T09:43:27.531Z,26.9
2022-10-17T09:44:30.000Z,27
2022-10-17T09:45:32.742Z,27
2022-10-17T09:46:34.943Z,26.8
2022-10-17T09:47:36.858Z,26.9
2022-10-17T09:48:39.586Z,26.9
2022-10-17T09:49:42.521Z,26.8
2022-10-17T09:50:44.446Z,26.7
2022-10-17T09:51:49.924Z,26.9
2022-10-17T09:52:52.470Z,26.8
2022-10-17T09:53:54.395Z,26.8
2022-10-17T09:54:56.585Z,26.8
2022-10-17T09:55:58.526Z,26.9
2022-10-17T09:57:01.005Z,26.8
2022-10-17T09:58:03.782Z,27
2022-10-17T09:59:08.368Z,27
2022-10-17T10:00:11.278Z,26.7
2022-10-17T10:01:19.611Z,27
2022-10-17T10:02:22.856Z,26.9
2022-10-17T10:03:24.548Z,26.7
2022-10-17T10:04:27.654Z,26.9
2022-10-17T10:05:31.752Z,26.9
2022-10-17T10:06:33.940Z,26.7
2022-10-17T10:07:36.158Z,26.8
2022-10-17T10:08:38.587Z,27
2022-10-17T10:09:41.076Z,26.9
2022-10-17T10:10:43.543Z,26.8
2022-10-17T10:11:45.856Z,26.9
2022-10-17T10:12:48.428Z,26.9
2022-10-17T10:13:51.006Z,26.9
2022-10-17T10:14:55.381Z,26.8
2022-10-17T10:15:57.671Z,26.9
2022-10-17T10:16:59.593Z,27
2022-10-17T10:18:01.518Z,26.9
2022-10-17T10:19:04.707Z,26.7
2022-10-17T10:20:08.164Z,26.7
2022-10-17T10:21:10.641Z,26.9
2022-10-17T10:22:12.562Z,26.9
2022-10-17T10:23:14.191Z,26.9
2022-10-17T10:24:16.820Z,26.9
2022-10-17T10:25:18.749Z,26.7
2022-10-17T10:26:21.322Z,26.7
2022-10-17T10:27:23.864Z,27
2022-10-17T10:28:26.607Z,26.8
2022-10-17T10:29:29.549Z,26.9
2022-10-17T10:30:34.874Z,26.7
2022-10-17T10:31:37.337Z,26.9
2022-10-17T10:32:39.552Z,26.8
2022-10-17T10:33:42.029Z,26.7
2022-10-17T10:34:47.515Z,26.8
2022-10-17T10:35:49.990Z,26.8
2022-10-17T10:36:52.176Z,26.7
2022-10-17T10:37:54.367Z,26.9
2022-10-17T10:38:57.695Z,26.9
2022-10-17T10:40:04.551Z,26.9
2022-10-17T10:41:07.111Z,26.9
2022-10-17T10:42:09.308Z,26.9
2022-10-17T10:43:11.881Z,26.7
2022-10-17T10:44:14.063Z,26.9
2022-10-17T10:45:29.193Z,26.8
2022-10-17T10:46:21.520Z,26.7
2022-10-17T10:47:23.988Z,26.9
2022-10-17T10:48:26.527Z,26.8
2022-10-17T10:49:28.723Z,26.8
2022-10-17T10:50:31.198Z,26.7
2022-10-17T10:51:33.394Z,26.7
2022-10-17T10:52:35.867Z,26.6
2022-10-17T10:53:38.079Z,27
2022-10-17T10:54:40.953Z,26.7
2022-10-17T10:55:43.200Z,26.9
2022-10-17T10:56:45.869Z,26.7
2022-10-17T10:57:52.422Z,26.7
2022-10-17T10:58:54.918Z,26.8
2022-10-17T10:59:57.405Z,26.8
2022-10-17T11:00:59.740Z,26.8
2022-10-17T11:02:02.579Z,26.8
2022-10-17T11:03:05.660Z,26.7
2022-10-17T11:04:11.392Z,26.8
2022-10-17T11:05:13.589Z,26.7
2022-10-17T11:06:15.804Z,26.9
2022-10-17T11:07:18.273Z,26.7
2022-10-17T11:08:20.486Z,26.8
2022-10-17T11:09:22.690Z,26.8
2022-10-17T11:10:25.172Z,26.9
2022-10-17T11:11:27.398Z,26.7
2022-10-17T11:12:29.940Z,27
2022-10-17T11:13:32.033Z,26.8
2022-10-17T11:14:34.536Z,26.8
2022-10-17T11:15:37.002Z,26.9
2022-10-17T11:16:39.276Z,27
2022-10-17T11:17:41.804Z,26.8
2022-10-17T11:18:44.015Z,26.9
2022-10-17T11:19:46.482Z,26.9
2022-10-17T11:20:49.292Z,26.8
2022-10-17T11:21:51.782Z,26.8
2022-10-17T11:22:53.984Z,26.7
2022-10-17T11:23:56.181Z,26.8
2022-10-17T11:24:58.654Z,27
2022-10-17T11:26:01.131Z,26.8
2022-10-17T11:27:03.853Z,26.9
2022-10-17T11:28:06.107Z,27
2022-10-17T11:29:08.076Z,26.8
2022-10-17T11:30:10.784Z,26.8
2022-10-17T11:31:12.977Z,26.9
2022-10-17T11:32:15.475Z,26.9
2022-10-17T11:33:17.690Z,26.9
2022-10-17T11:34:20.174Z,27
2022-10-17T11:35:22.653Z,26.8
2022-10-17T11:36:24.840Z,26.8
2022-10-17T11:37:27.076Z,26.9
2022-10-17T11:38:29.257Z,27
2022-10-17T11:39:31.160Z,26.9
2022-10-17T11:40:33.774Z,26.9
2022-10-17T11:41:35.997Z,26.8
2022-10-17T11:42:38.202Z,27
2022-10-17T11:43:40.324Z,26.9
2022-10-17T11:44:42.799Z,26.8
2022-10-17T11:45:45.442Z,26.9
2022-10-17T11:46:47.747Z,26.9
2022-10-17T11:47:49.926Z,26.9
2022-10-17T11:48:51.834Z,26.9
2022-10-17T11:49:54.521Z,26.6
2022-10-17T11:52:03.722Z,26.7
2022-10-17T11:53:05.440Z,26.8
2022-10-17T11:54:07.923Z,26.8
2022-10-17T11:55:10.121Z,26.7
2022-10-17T11:56:12.027Z,26.8
2022-10-17T11:57:14.895Z,26.8
2022-10-17T11:58:17.507Z,26.6
2022-10-17T11:59:20.458Z,26.8
2022-10-17T12:00:22.570Z,26.9
2022-10-17T12:01:24.797Z,26.8
2022-10-17T12:02:27.283Z,26.9
2022-10-17T12:03:31.919Z,26.7
2022-10-17T12:04:33.888Z,26.8
2022-10-17T12:05:36.369Z,26.8
2022-10-17T12:06:38.850Z,26.8
2022-10-17T12:08:44.377Z,26.8
2022-10-17T12:09:46.576Z,26.8
2022-10-17T12:10:48.712Z,26.7
2022-10-17T12:11:50.705Z,26.9
2022-10-17T12:12:52.640Z,26.9
2022-10-17T12:13:55.133Z,26.8
2022-10-17T12:14:57.793Z,26.7
2022-10-17T12:16:00.266Z,26.9
2022-10-17T12:17:02.579Z,27
2022-10-17T12:18:04.768Z,26.9
2022-10-17T12:19:07.244Z,26.9
2022-10-17T12:20:09.472Z,26.8
2022-10-17T12:21:11.650Z,26.8
2022-10-17T12:22:13.848Z,26.9
2022-10-17T12:23:16.070Z,26.8
2022-10-17T12:24:18.954Z,26.8
2022-10-17T12:25:21.208Z,26.8
2022-10-17T12:26:23.677Z,26.8
2022-10-17T12:27:26.091Z,26.8
2022-10-17T12:28:30.249Z,26.7
2022-10-17T12:29:33.071Z,26.8
2022-10-17T12:30:35.598Z,27
2022-10-17T12:31:38.080Z,26.8
2022-10-17T12:33:00.288Z,26.9
2022-10-17T12:33:45.358Z,26.9
2022-10-17T12:34:47.291Z,26.9
2022-10-17T12:35:49.517Z,26.9
2022-10-17T12:36:51.988Z,26.8
2022-10-17T12:37:57.349Z,26.7
2022-10-17T12:38:59.448Z,26.7
2022-10-17T12:40:01.372Z,26.9
2022-10-17T12:41:03.679Z,26.9
2022-10-17T12:42:05.924Z,26.8
2022-10-17T12:43:08.118Z,26.8
2022-10-17T12:44:10.594Z,26.9
2022-10-17T12:45:12.821Z,26.9
2022-10-17T12:46:15.364Z,26.6
2022-10-17T12:47:17.839Z,26.8
2022-10-17T12:48:22.604Z,26.9
2022-10-17T12:49:24.812Z,26.9
2022-10-17T12:50:27.135Z,26.9
2022-10-17T12:51:37.846Z,26.7
2022-10-17T12:52:34.599Z,26.9
2022-10-17T12:53:37.160Z,26.7
2022-10-17T12:54:46.934Z,26.7
2022-10-17T12:55:44.826Z,26.9
2022-10-17T12:56:47.300Z,26.8
2022-10-17T12:57:50.103Z,26.7
2022-10-17T12:58:52.351Z,26.8
2022-10-17T12:59:57.951Z,26.9
2022-10-17T13:01:19.357Z,26.7
2022-10-17T13:02:04.865Z,26.8
2022-10-17T13:03:07.449Z,26.7
2022-10-17T13:04:09.939Z,26.9
2022-10-17T13:05:12.411Z,26.8
2022-10-17T13:06:14.890Z,27
2022-10-17T13:07:17.359Z,26.7
2022-10-17T13:08:19.836Z,26.9
2022-10-17T13:09:22.036Z,26.8
2022-10-17T13:10:24.526Z,26.7
2022-10-17T13:11:27.795Z,27
2022-10-17T13:12:30.001Z,27
2022-10-17T13:13:38.936Z,26.9
2022-10-17T13:14:41.138Z,27
2022-10-17T13:15:43.613Z,27
2022-10-17T13:16:46.077Z,26.8
2022-10-17T13:17:48.864Z,26.9
2022-10-17T13:18:51.466Z,26.8
2022-10-17T13:19:53.116Z,26.8
2022-10-17T13:20:55.589Z,26.9
2022-10-17T13:21:59.781Z,26.8
2022-10-17T13:23:03.066Z,27
2022-10-17T13:24:05.546Z,27
2022-10-17T13:25:08.023Z,26.9
2022-10-17T13:26:10.195Z,26.7
2022-10-17T13:27:12.422Z,26.7
2022-10-17T13:28:15.741Z,26.9
2022-10-17T13:29:18.090Z,26.8
2022-10-17T13:30:20.473Z,26.9
2022-10-17T13:31:28.869Z,27
2022-10-17T13:32:31.963Z,26.8
2022-10-17T13:33:34.520Z,26.9
2022-10-17T13:34:37.065Z,26.8
2022-10-17T13:35:59.301Z,26.9
2022-10-17T13:36:47.975Z,27
2022-10-17T13:37:53.756Z,26.8
2022-10-17T13:38:54.268Z,26.8
2022-10-17T13:40:00.187Z,26.8
2022-10-17T13:41:10.970Z,26.6
2022-10-17T13:42:06.454Z,26.8
2022-10-17T13:43:08.943Z,26.7
2022-10-17T13:44:11.416Z,26.9
2022-10-17T13:45:13.892Z,26.7
2022-10-17T13:46:35.946Z,26.7
2022-10-17T13:47:21.147Z,26.9
2022-10-17T13:48:23.389Z,26.9
2022-10-17T13:49:26.061Z,26.8
2022-10-17T13:50:43.426Z,27.1
2022-10-17T13:51:35.505Z,27
2022-10-17T13:52:37.965Z,26.6
2022-10-17T13:53:41.074Z,26.8
2022-10-17T13:54:43.276Z,26.9
2022-10-17T13:55:45.741Z,27
2022-10-17T13:56:53.579Z,26.9
2022-10-17T13:57:56.860Z,26.9
2022-10-17T13:58:59.060Z,26.9
2022-10-17T14:00:01.255Z,26.9
2022-10-17T14:01:08.231Z,26.9
2022-10-17T14:02:11.053Z,26.9
2022-10-17T14:03:13.267Z,27
2022-10-17T14:04:20.035Z,27
2022-10-17T14:05:21.016Z,26.8
2022-10-17T14:06:23.692Z,26.9